sensor_id;sensor_type;location;lat;lon;timestamp;pressure;altitude;pressure_sealevel;temperature;humidity
22241;BME280;11289;52.524;13.694;2023-11-18T00:02:16;101552.09;;;4.90;92.11
22241;BME280;11289;52.524;13.694;2023-11-18T00:04:43;101544.09;;;4.93;92.60
22241;BME280;11289;52.524;13.694;2023-11-18T00:07:08;101544.09;;;4.93;91.61
22241;BME280;11289;52.524;13.694;2023-11-18T00:09:34;101556.78;;;4.94;92.13
22241;BME280;11289;52.524;13.694;2023-11-18T00:12:00;101547.69;;;4.94;91.98
22241;BME280;11289;52.524;13.694;2023-11-18T00:14:26;101550.44;;;4.94;91.51
22241;BME280;11289;52.524;13.694;2023-11-18T00:16:52;101553.19;;;4.88;91.57
22241;BME280;11289;52.524;13.694;2023-11-18T00:19:18;101552.09;;;4.90;92.58
22241;BME280;11289;52.524;13.694;2023-11-18T00:21:44;101565.00;;;4.89;92.35
22241;BME280;11289;52.524;13.694;2023-11-18T00:24:09;101565.84;;;4.90;92.33
22241;BME280;11289;52.524;13.694;2023-11-18T00:26:35;101562.81;;;4.91;92.47
22241;BME280;11289;52.524;13.694;2023-11-18T00:29:01;101572.72;;;4.92;92.08
22241;BME280;11289;52.524;13.694;2023-11-18T00:31:26;101570.25;;;4.91;92.07
22241;BME280;11289;52.524;13.694;2023-11-18T00:33:52;101573.84;;;4.91;92.29
22241;BME280;11289;52.524;13.694;2023-11-18T00:36:18;101580.97;;;4.92;92.20
22241;BME280;11289;52.524;13.694;2023-11-18T00:38:44;101577.13;;;4.93;91.75
22241;BME280;11289;52.524;13.694;2023-11-18T00:41:10;101577.41;;;4.92;91.98
22241;BME280;11289;52.524;13.694;2023-11-18T00:43:35;101581.50;;;4.89;92.32
22241;BME280;11289;52.524;13.694;2023-11-18T00:46:01;101590.06;;;4.93;92.38
22241;BME280;11289;52.524;13.694;2023-11-18T00:48:28;101583.19;;;4.90;91.85
22241;BME280;11289;52.524;13.694;2023-11-18T00:50:55;101587.88;;;4.90;92.24
22241;BME280;11289;52.524;13.694;2023-11-18T00:53:22;101601.91;;;4.88;92.00
22241;BME280;11289;52.524;13.694;2023-11-18T00:55:47;101601.31;;;4.86;91.99
22241;BME280;11289;52.524;13.694;2023-11-18T00:58:14;101601.91;;;4.88;92.02
22241;BME280;11289;52.524;13.694;2023-11-18T01:00:40;101603.81;;;4.87;92.30
22241;BME280;11289;52.524;13.694;2023-11-18T01:03:05;101604.38;;;4.90;92.66
22241;BME280;11289;52.524;13.694;2023-11-18T01:05:31;101604.66;;;4.88;91.77
22241;BME280;11289;52.524;13.694;2023-11-18T01:07:57;101607.41;;;4.88;91.60
22241;BME280;11289;52.524;13.694;2023-11-18T01:10:23;101625.56;;;4.89;92.15
22241;BME280;11289;52.524;13.694;2023-11-18T01:12:48;101624.72;;;4.88;92.30
22241;BME280;11289;52.524;13.694;2023-11-18T01:15:14;101622.78;;;4.89;92.35
22241;BME280;11289;52.524;13.694;2023-11-18T01:17:40;101628.31;;;4.89;92.07
22241;BME280;11289;52.524;13.694;2023-11-18T01:20:06;101620.03;;;4.89;92.38
22241;BME280;11289;52.524;13.694;2023-11-18T01:22:39;101628.31;;;4.89;92.20
22241;BME280;11289;52.524;13.694;2023-11-18T01:25:05;101625.56;;;4.89;91.82
22241;BME280;11289;52.524;13.694;2023-11-18T01:27:31;101633.81;;;4.89;91.76
22241;BME280;11289;52.524;13.694;2023-11-18T01:29:59;101631.31;;;4.87;92.16
22241;BME280;11289;52.524;13.694;2023-11-18T01:32:25;101628.31;;;4.89;92.17
22241;BME280;11289;52.524;13.694;2023-11-18T01:34:51;101632.16;;;4.88;92.28
22241;BME280;11289;52.524;13.694;2023-11-18T01:37:17;101633.81;;;4.89;92.41
22241;BME280;11289;52.524;13.694;2023-11-18T01:39:42;101634.38;;;4.91;92.23
22241;BME280;11289;52.524;13.694;2023-11-18T01:42:08;101638.78;;;4.92;92.30
22241;BME280;11289;52.524;13.694;2023-11-18T01:44:34;101639.03;;;4.91;91.73
22241;BME280;11289;52.524;13.694;2023-11-18T01:47:03;101644.00;;;4.88;91.95
22241;BME280;11289;52.524;13.694;2023-11-18T01:49:31;101649.22;;;4.90;91.96
22241;BME280;11289;52.524;13.694;2023-11-18T01:51:58;101648.69;;;4.88;91.70
22241;BME280;11289;52.524;13.694;2023-11-18T01:54:27;101639.84;;;4.86;91.63
22241;BME280;11289;52.524;13.694;2023-11-18T01:56:53;101645.09;;;4.87;91.77
22241;BME280;11289;52.524;13.694;2023-11-18T01:59:19;101645.34;;;4.86;92.18
22241;BME280;11289;52.524;13.694;2023-11-18T02:01:51;101656.38;;;4.86;91.68
22241;BME280;11289;52.524;13.694;2023-11-18T02:04:19;101655.28;;;4.87;92.53
22241;BME280;11289;52.524;13.694;2023-11-18T02:06:47;101651.69;;;4.86;92.37
22241;BME280;11289;52.524;13.694;2023-11-18T02:09:14;101653.06;;;4.89;92.56
22241;BME280;11289;52.524;13.694;2023-11-18T02:11:42;101658.31;;;4.91;91.98
22241;BME280;11289;52.524;13.694;2023-11-18T02:14:13;101660.78;;;4.92;92.23
22241;BME280;11289;52.524;13.694;2023-11-18T02:16:39;101661.38;;;4.94;92.33
22241;BME280;11289;52.524;13.694;2023-11-18T02:19:08;101666.88;;;4.94;91.93
22241;BME280;11289;52.524;13.694;2023-11-18T02:21:35;101669.63;;;4.94;91.74
22241;BME280;11289;52.524;13.694;2023-11-18T02:24:03;101674.88;;;4.96;92.28
22241;BME280;11289;52.524;13.694;2023-11-18T02:26:30;101678.97;;;4.93;91.35
22241;BME280;11289;52.524;13.694;2023-11-18T02:28:55;101682.81;;;4.92;91.60
22241;BME280;11289;52.524;13.694;2023-11-18T02:31:27;101679.25;;;4.92;92.08
22241;BME280;11289;52.524;13.694;2023-11-18T02:34:00;101686.69;;;4.91;92.00
22241;BME280;11289;52.524;13.694;2023-11-18T02:36:31;101684.47;;;4.88;91.79
22241;BME280;11289;52.524;13.694;2023-11-18T02:39:03;101686.63;;;4.86;91.05
22241;BME280;11289;52.524;13.694;2023-11-18T02:41:33;101681.94;;;4.86;91.98
22241;BME280;11289;52.524;13.694;2023-11-18T02:44:00;101676.22;;;4.88;92.47
22241;BME280;11289;52.524;13.694;2023-11-18T02:46:26;101684.69;;;4.86;91.69
22241;BME280;11289;52.524;13.694;2023-11-18T02:48:53;101676.22;;;4.88;91.74
22241;BME280;11289;52.524;13.694;2023-11-18T02:51:19;101682.78;;;4.87;91.74
22241;BME280;11289;52.524;13.694;2023-11-18T02:53:45;101672.06;;;4.85;91.13
22241;BME280;11289;52.524;13.694;2023-11-18T02:56:10;101676.44;;;4.86;91.88
22241;BME280;11289;52.524;13.694;2023-11-18T02:58:37;101676.16;;;4.83;91.30
22241;BME280;11289;52.524;13.694;2023-11-18T03:01:03;101680.84;;;4.82;91.55
22241;BME280;11289;52.524;13.694;2023-11-18T03:03:30;101681.38;;;4.79;91.41
22241;BME280;11289;52.524;13.694;2023-11-18T03:05:55;101685.22;;;4.78;90.88
22241;BME280;11289;52.524;13.694;2023-11-18T03:08:21;101684.91;;;4.75;90.82
22241;BME280;11289;52.524;13.694;2023-11-18T03:10:47;101677.78;;;4.74;91.54
22241;BME280;11289;52.524;13.694;2023-11-18T03:13:13;101687.13;;;4.78;91.31
22241;BME280;11289;52.524;13.694;2023-11-18T03:15:38;101684.91;;;4.75;91.06
22241;BME280;11289;52.524;13.694;2023-11-18T03:18:04;101683.53;;;4.72;91.11
22241;BME280;11289;52.524;13.694;2023-11-18T03:20:31;101689.03;;;4.72;91.51
22241;BME280;11289;52.524;13.694;2023-11-18T03:22:59;101689.31;;;4.70;91.74
22241;BME280;11289;52.524;13.694;2023-11-18T03:25:25;101687.66;;;4.69;91.10
22241;BME280;11289;52.524;13.694;2023-11-18T03:27:51;101681.56;;;4.67;91.24
22241;BME280;11289;52.524;13.694;2023-11-18T03:30:18;101688.72;;;4.68;91.84
22241;BME280;11289;52.524;13.694;2023-11-18T03:32:44;101685.44;;;4.66;91.54
22241;BME280;11289;52.524;13.694;2023-11-18T03:35:10;101687.31;;;4.66;91.67
22241;BME280;11289;52.524;13.694;2023-11-18T03:37:39;101686.25;;;4.67;91.41
22241;BME280;11289;52.524;13.694;2023-11-18T03:40:09;101687.31;;;4.66;92.12
22241;BME280;11289;52.524;13.694;2023-11-18T03:42:35;101693.09;;;4.64;91.56
22241;BME280;11289;52.524;13.694;2023-11-18T03:45:02;101701.34;;;4.64;91.57
22241;BME280;11289;52.524;13.694;2023-11-18T03:47:28;101696.13;;;4.63;92.25
22241;BME280;11289;52.524;13.694;2023-11-18T03:49:55;101695.28;;;4.62;91.97
22241;BME280;11289;52.524;13.694;2023-11-18T03:52:21;101703.28;;;4.64;92.55
22241;BME280;11289;52.524;13.694;2023-11-18T03:54:47;101704.94;;;4.65;92.71
22241;BME280;11289;52.524;13.694;2023-11-18T03:57:12;101703.03;;;4.65;93.26
22241;BME280;11289;52.524;13.694;2023-11-18T03:59:39;101698.91;;;4.68;93.26
22241;BME280;11289;52.524;13.694;2023-11-18T04:02:04;101694.50;;;4.67;92.97
22241;BME280;11289;52.524;13.694;2023-11-18T04:04:30;101701.66;;;4.68;93.34
22241;BME280;11289;52.524;13.694;2023-11-18T04:06:56;101700.31;;;4.70;92.90
22241;BME280;11289;52.524;13.694;2023-11-18T04:09:21;101705.28;;;4.74;92.87
22241;BME280;11289;52.524;13.694;2023-11-18T04:11:47;101703.34;;;4.74;93.34
22241;BME280;11289;52.524;13.694;2023-11-18T04:14:13;101710.78;;;4.74;92.81
22241;BME280;11289;52.524;13.694;2023-11-18T04:16:39;101703.34;;;4.74;92.54
22241;BME280;11289;52.524;13.694;2023-11-18T04:19:04;101702.25;;;4.75;92.81
22241;BME280;11289;52.524;13.694;2023-11-18T04:21:31;101700.88;;;4.78;92.78
22241;BME280;11289;52.524;13.694;2023-11-18T04:23:57;101711.34;;;4.76;92.47
22241;BME280;11289;52.524;13.694;2023-11-18T04:26:23;101719.59;;;4.76;92.70
22241;BME280;11289;52.524;13.694;2023-11-18T04:28:50;101717.41;;;4.78;93.08
22241;BME280;11289;52.524;13.694;2023-11-18T04:31:16;101721.25;;;4.77;92.72
22241;BME280;11289;52.524;13.694;2023-11-18T04:33:41;101726.50;;;4.78;92.79
22241;BME280;11289;52.524;13.694;2023-11-18T04:36:07;101725.16;;;4.81;92.42
22241;BME280;11289;52.524;13.694;2023-11-18T04:38:35;101731.47;;;4.81;92.82
22241;BME280;11289;52.524;13.694;2023-11-18T04:41:01;101730.38;;;4.82;92.00
22241;BME280;11289;52.524;13.694;2023-11-18T04:43:29;101736.41;;;4.79;92.37
22241;BME280;11289;52.524;13.694;2023-11-18T04:45:55;101741.91;;;4.79;92.83
22241;BME280;11289;52.524;13.694;2023-11-18T04:48:21;101739.72;;;4.81;92.14
22241;BME280;11289;52.524;13.694;2023-11-18T04:50:47;101732.28;;;4.82;92.74
22241;BME280;11289;52.524;13.694;2023-11-18T04:53:13;101734.22;;;4.81;91.90
22241;BME280;11289;52.524;13.694;2023-11-18T04:55:38;101736.72;;;4.83;92.55
22241;BME280;11289;52.524;13.694;2023-11-18T04:58:04;101737.78;;;4.82;92.28
22241;BME280;11289;52.524;13.694;2023-11-18T05:00:40;101746.03;;;4.82;92.19
22241;BME280;11289;52.524;13.694;2023-11-18T05:03:07;101738.06;;;4.80;92.27
22241;BME280;11289;52.524;13.694;2023-11-18T05:05:36;101730.66;;;4.81;92.06
22241;BME280;11289;52.524;13.694;2023-11-18T05:08:05;101732.28;;;4.82;92.29
22241;BME280;11289;52.524;13.694;2023-11-18T05:10:34;101727.31;;;4.79;91.35
22241;BME280;11289;52.524;13.694;2023-11-18T05:13:00;101733.09;;;4.77;91.80
22241;BME280;11289;52.524;13.694;2023-11-18T05:15:26;101733.09;;;4.77;91.51
22241;BME280;11289;52.524;13.694;2023-11-18T05:17:52;101736.09;;;4.76;91.53
22241;BME280;11289;52.524;13.694;2023-11-18T05:20:19;101740.19;;;4.68;91.14
22241;BME280;11289;52.524;13.694;2023-11-18T05:22:45;101736.03;;;4.65;91.46
22241;BME280;11289;52.524;13.694;2023-11-18T05:25:11;101729.72;;;4.65;91.75
22241;BME280;11289;52.524;13.694;2023-11-18T05:27:37;101735.47;;;4.63;91.73
22241;BME280;11289;52.524;13.694;2023-11-18T05:30:06;101736.56;;;4.62;91.46
22241;BME280;11289;52.524;13.694;2023-11-18T05:32:32;101728.31;;;4.62;90.94
22241;BME280;11289;52.524;13.694;2023-11-18T05:34:58;101734.06;;;4.61;91.03
22241;BME280;11289;52.524;13.694;2023-11-18T05:37:24;101734.03;;;4.56;90.92
22241;BME280;11289;52.524;13.694;2023-11-18T05:39:50;101737.63;;;4.56;91.05
22241;BME280;11289;52.524;13.694;2023-11-18T05:42:24;101734.88;;;4.56;90.81
22241;BME280;11289;52.524;13.694;2023-11-18T05:44:50;101735.97;;;4.55;91.09
22241;BME280;11289;52.524;13.694;2023-11-18T05:47:23;101733.75;;;4.57;91.69
22241;BME280;11289;52.524;13.694;2023-11-18T05:49:49;101737.34;;;4.58;90.64
22241;BME280;11289;52.524;13.694;2023-11-18T05:52:14;101746.97;;;4.55;90.98
22241;BME280;11289;52.524;13.694;2023-11-18T05:54:40;101748.03;;;4.54;91.25
22241;BME280;11289;52.524;13.694;2023-11-18T05:57:06;101754.63;;;4.53;90.76
22241;BME280;11289;52.524;13.694;2023-11-18T05:59:32;101754.88;;;4.51;90.87
22241;BME280;11289;52.524;13.694;2023-11-18T06:01:58;101749.13;;;4.53;90.74
22241;BME280;11289;52.524;13.694;2023-11-18T06:04:24;101755.47;;;4.53;91.08
22241;BME280;11289;52.524;13.694;2023-11-18T06:06:51;101759.03;;;4.54;90.88
22241;BME280;11289;52.524;13.694;2023-11-18T06:09:17;101753.53;;;4.54;90.70
22241;BME280;11289;52.524;13.694;2023-11-18T06:11:51;101761.53;;;4.56;91.13
22241;BME280;11289;52.524;13.694;2023-11-18T06:14:19;101773.13;;;4.58;91.47
22241;BME280;11289;52.524;13.694;2023-11-18T06:16:44;101758.78;;;4.56;90.77
22241;BME280;11289;52.524;13.694;2023-11-18T06:19:10;101762.38;;;4.56;91.35
22241;BME280;11289;52.524;13.694;2023-11-18T06:21:36;101765.41;;;4.60;91.25
22241;BME280;11289;52.524;13.694;2023-11-18T06:24:02;101755.50;;;4.59;90.80
22241;BME280;11289;52.524;13.694;2023-11-18T06:26:29;101760.19;;;4.58;91.18
22241;BME280;11289;52.524;13.694;2023-11-18T06:28:55;101760.19;;;4.58;91.11
22241;BME280;11289;52.524;13.694;2023-11-18T06:31:21;101767.63;;;4.58;91.30
22241;BME280;11289;52.524;13.694;2023-11-18T06:33:49;101768.44;;;4.58;90.96
22241;BME280;11289;52.524;13.694;2023-11-18T06:38:42;101773.94;;;4.58;91.46
22241;BME280;11289;52.524;13.694;2023-11-18T06:41:09;101778.34;;;4.59;91.53
22241;BME280;11289;52.524;13.694;2023-11-18T06:43:39;101775.59;;;4.59;91.16
22241;BME280;11289;52.524;13.694;2023-11-18T06:46:18;101768.44;;;4.58;90.90
22241;BME280;11289;52.524;13.694;2023-11-18T06:48:47;101785.19;;;4.57;90.58
22241;BME280;11289;52.524;13.694;2023-11-18T06:51:13;101790.72;;;4.57;91.13
22241;BME280;11289;52.524;13.694;2023-11-18T06:53:43;101795.69;;;4.60;90.49
22241;BME280;11289;52.524;13.694;2023-11-18T06:56:10;101789.34;;;4.59;90.93
22241;BME280;11289;52.524;13.694;2023-11-18T06:58:39;101801.19;;;4.60;90.32
22241;BME280;11289;52.524;13.694;2023-11-18T07:01:05;101808.34;;;4.61;90.24
22241;BME280;11289;52.524;13.694;2023-11-18T07:03:31;101812.75;;;4.62;90.00
22241;BME280;11289;52.524;13.694;2023-11-18T07:05:57;101806.41;;;4.61;89.50
22241;BME280;11289;52.524;13.694;2023-11-18T07:08:23;101804.25;;;4.63;89.64
22241;BME280;11289;52.524;13.694;2023-11-18T07:10:49;101811.41;;;4.64;89.87
22241;BME280;11289;52.524;13.694;2023-11-18T07:13:15;101805.38;;;4.67;90.25
22241;BME280;11289;52.524;13.694;2023-11-18T07:15:41;101809.25;;;4.71;90.12
22241;BME280;11289;52.524;13.694;2023-11-18T07:18:08;101823.59;;;4.74;88.65
22241;BME280;11289;52.524;13.694;2023-11-18T07:20:34;101814.72;;;4.66;88.21
22241;BME280;11289;52.524;13.694;2023-11-18T07:23:00;101819.13;;;4.67;88.79
22241;BME280;11289;52.524;13.694;2023-11-18T07:25:26;101817.22;;;4.68;88.62
22241;BME280;11289;52.524;13.694;2023-11-18T07:27:52;101827.97;;;4.69;89.50
22241;BME280;11289;52.524;13.694;2023-11-18T07:30:18;101823.88;;;4.72;89.65
22241;BME280;11289;52.524;13.694;2023-11-18T07:32:44;101821.41;;;4.76;89.46
22241;BME280;11289;52.524;13.694;2023-11-18T07:35:09;101828.31;;;4.78;89.62
22241;BME280;11289;52.524;13.694;2023-11-18T07:37:36;101833.28;;;4.81;89.47
22241;BME280;11289;52.524;13.694;2023-11-18T07:40:03;101826.13;;;4.80;89.52
22241;BME280;11289;52.524;13.694;2023-11-18T07:42:31;101839.59;;;4.82;89.12
22241;BME280;11289;52.524;13.694;2023-11-18T07:44:56;101844.59;;;4.85;89.53
22241;BME280;11289;52.524;13.694;2023-11-18T07:47:22;101845.69;;;4.84;89.43
22241;BME280;11289;52.524;13.694;2023-11-18T07:49:48;101852.28;;;4.83;89.01
22241;BME280;11289;52.524;13.694;2023-11-18T07:52:14;101846.50;;;4.79;89.07
22241;BME280;11289;52.524;13.694;2023-11-18T07:54:39;101846.16;;;4.76;88.75
22241;BME280;11289;52.524;13.694;2023-11-18T07:57:05;101839.59;;;4.77;88.97
22241;BME280;11289;52.524;13.694;2023-11-18T07:59:35;101855.84;;;4.78;89.08
22241;BME280;11289;52.524;13.694;2023-11-18T08:02:01;101851.16;;;4.79;89.96
22241;BME280;11289;52.524;13.694;2023-11-18T08:04:29;101851.16;;;4.79;89.25
22241;BME280;11289;52.524;13.694;2023-11-18T08:06:55;101852.50;;;4.76;89.19
22241;BME280;11289;52.524;13.694;2023-11-18T08:09:21;101862.75;;;4.81;89.97
22241;BME280;11289;52.524;13.694;2023-11-18T08:11:51;101858.59;;;4.83;89.81
22241;BME280;11289;52.524;13.694;2023-11-18T08:14:16;101855.59;;;4.85;89.23
22241;BME280;11289;52.524;13.694;2023-11-18T08:16:42;101862.69;;;4.76;88.76
22241;BME280;11289;52.524;13.694;2023-11-18T08:19:09;101861.00;;;4.75;89.04
22241;BME280;11289;52.524;13.694;2023-11-18T08:21:35;101867.66;;;4.79;89.82
22241;BME280;11289;52.524;13.694;2023-11-18T08:24:04;101880.06;;;4.81;89.79
22241;BME280;11289;52.524;13.694;2023-11-18T08:26:30;101880.94;;;4.87;89.48
22241;BME280;11289;52.524;13.694;2023-11-18T08:28:56;101890.34;;;4.91;89.93
22241;BME280;11289;52.524;13.694;2023-11-18T08:31:22;101889.75;;;4.89;89.02
22241;BME280;11289;52.524;13.694;2023-11-18T08:33:47;101889.22;;;4.87;88.58
22241;BME280;11289;52.524;13.694;2023-11-18T08:36:13;101894.72;;;4.87;89.21
22241;BME280;11289;52.524;13.694;2023-11-18T08:38:39;101891.97;;;4.87;88.62
22241;BME280;11289;52.524;13.694;2023-11-18T08:41:06;101888.06;;;4.83;87.94
22241;BME280;11289;52.524;13.694;2023-11-18T08:43:34;101897.72;;;4.85;88.85
22241;BME280;11289;52.524;13.694;2023-11-18T08:46:00;101888.88;;;4.83;88.92
22241;BME280;11289;52.524;13.694;2023-11-18T08:48:26;101887.34;;;4.93;89.51
22241;BME280;11289;52.524;13.694;2023-11-18T08:50:53;101896.22;;;5.05;89.41
22241;BME280;11289;52.524;13.694;2023-11-18T08:53:19;101878.16;;;5.14;88.74
22241;BME280;11289;52.524;13.694;2023-11-18T08:55:51;101876.84;;;5.22;88.13
22241;BME280;11289;52.524;13.694;2023-11-18T08:58:19;101877.44;;;5.29;88.49
22241;BME280;11289;52.524;13.694;2023-11-18T09:00:46;101879.09;;;5.30;86.78
22241;BME280;11289;52.524;13.694;2023-11-18T09:03:18;101884.91;;;5.34;87.29
22241;BME280;11289;52.524;13.694;2023-11-18T09:05:51;101878.03;;;5.36;87.10
22241;BME280;11289;52.524;13.694;2023-11-18T09:10:49;101876.69;;;5.39;86.11
22241;BME280;11289;52.524;13.694;2023-11-18T09:13:15;101876.09;;;5.37;86.19
22241;BME280;11289;52.524;13.694;2023-11-18T09:15:40;101886.31;;;5.41;86.29
22241;BME280;11289;52.524;13.694;2023-11-18T09:18:08;101897.72;;;5.55;85.83
22241;BME280;11289;52.524;13.694;2023-11-18T09:20:35;101902.84;;;5.84;86.98
22241;BME280;11289;52.524;13.694;2023-11-18T09:23:01;101903.34;;;6.24;86.61
22241;BME280;11289;52.524;13.694;2023-11-18T09:25:27;101914.75;;;6.63;84.77
22241;BME280;11289;52.524;13.694;2023-11-18T09:27:53;101909.03;;;6.96;83.17
22241;BME280;11289;52.524;13.694;2023-11-18T09:30:19;101910.97;;;7.26;81.11
22241;BME280;11289;52.524;13.694;2023-11-18T09:32:45;101913.19;;;7.29;78.50
22241;BME280;11289;52.524;13.694;2023-11-18T09:35:13;101921.47;;;7.40;78.79
22241;BME280;11289;52.524;13.694;2023-11-18T09:37:39;101912.59;;;7.43;77.13
22241;BME280;11289;52.524;13.694;2023-11-18T09:40:13;101918.97;;;7.38;77.36
22241;BME280;11289;52.524;13.694;2023-11-18T09:42:39;101911.81;;;7.32;75.70
22241;BME280;11289;52.524;13.694;2023-11-18T09:45:05;101914.00;;;7.25;76.76
22241;BME280;11289;52.524;13.694;2023-11-18T09:48:18;101908.47;;;6.99;75.04
22241;BME280;11289;52.524;13.694;2023-11-18T09:50:51;101917.28;;;6.91;75.10
22241;BME280;11289;52.524;13.694;2023-11-18T09:53:17;101904.59;;;6.85;75.97
22241;BME280;11289;52.524;13.694;2023-11-18T09:55:48;101907.34;;;6.85;75.86
22241;BME280;11289;52.524;13.694;2023-11-18T09:58:15;101908.44;;;6.78;76.13
22241;BME280;11289;52.524;13.694;2023-11-18T10:00:45;101913.44;;;6.82;76.42
22241;BME280;11289;52.524;13.694;2023-11-18T10:03:13;101905.41;;;6.80;76.02
22241;BME280;11289;52.524;13.694;2023-11-18T10:05:41;101911.22;;;6.84;76.51
22241;BME280;11289;52.524;13.694;2023-11-18T10:08:07;101913.97;;;6.78;76.10
22241;BME280;11289;52.524;13.694;2023-11-18T10:10:34;101919.75;;;6.82;76.44
22241;BME280;11289;52.524;13.694;2023-11-18T10:13:03;101914.53;;;6.86;77.77
22241;BME280;11289;52.524;13.694;2023-11-18T10:15:33;101911.78;;;6.91;77.94
22241;BME280;11289;52.524;13.694;2023-11-18T10:17:59;101913.41;;;6.87;76.05
22241;BME280;11289;52.524;13.694;2023-11-18T10:23:13;101912.63;;;7.02;76.90
22241;BME280;11289;52.524;13.694;2023-11-18T10:25:51;101923.94;;;7.15;77.46
22241;BME280;11289;52.524;13.694;2023-11-18T10:28:36;101922.00;;;7.21;76.90
22241;BME280;11289;52.524;13.694;2023-11-18T10:31:03;101914.00;;;7.25;77.30
22241;BME280;11289;52.524;13.694;2023-11-18T10:33:30;101912.31;;;7.29;76.92
22241;BME280;11289;52.524;13.694;2023-11-18T10:35:57;101903.78;;;7.30;76.32
22241;BME280;11289;52.524;13.694;2023-11-18T10:38:22;101897.97;;;7.32;75.92
22241;BME280;11289;52.524;13.694;2023-11-18T10:40:55;101897.13;;;7.31;74.73
22241;BME280;11289;52.524;13.694;2023-11-18T10:43:23;101900.75;;;7.32;75.76
22241;BME280;11289;52.524;13.694;2023-11-18T10:46:03;101905.41;;;7.31;75.41
22241;BME280;11289;52.524;13.694;2023-11-18T10:48:30;101889.69;;;7.32;75.73
22241;BME280;11289;52.524;13.694;2023-11-18T10:50:56;101894.38;;;7.37;76.54
22241;BME280;11289;52.524;13.694;2023-11-18T10:53:24;101882.78;;;7.40;76.31
22241;BME280;11289;52.524;13.694;2023-11-18T10:55:52;101897.13;;;7.42;75.22
22241;BME280;11289;52.524;13.694;2023-11-18T10:58:17;101891.88;;;7.45;76.07
22241;BME280;11289;52.524;13.694;2023-11-18T11:00:45;101897.38;;;7.50;75.47
22241;BME280;11289;52.524;13.694;2023-11-18T11:03:13;101897.69;;;7.54;75.73
22241;BME280;11289;52.524;13.694;2023-11-18T11:05:39;101902.34;;;7.54;74.73
22241;BME280;11289;52.524;13.694;2023-11-18T11:08:08;101902.63;;;7.57;74.56
22241;BME280;11289;52.524;13.694;2023-11-18T11:10:34;101897.38;;;7.56;72.95
22241;BME280;11289;52.524;13.694;2023-11-18T11:13:01;101900.97;;;7.56;73.34
22241;BME280;11289;52.524;13.694;2023-11-18T11:15:31;101907.88;;;7.59;73.66
22241;BME280;11289;52.524;13.694;2023-11-18T11:18:07;101902.91;;;7.61;73.69
22241;BME280;11289;52.524;13.694;2023-11-18T11:20:47;101912.31;;;7.60;74.42
22241;BME280;11289;52.524;13.694;2023-11-18T11:23:18;101904.88;;;7.55;72.66
22241;BME280;11289;52.524;13.694;2023-11-18T11:25:55;101902.91;;;7.50;71.91
22241;BME280;11289;52.524;13.694;2023-11-18T11:28:22;101912.88;;;7.52;73.38
22241;BME280;11289;52.524;13.694;2023-11-18T11:30:58;101914.25;;;7.54;71.95
22241;BME280;11289;52.524;13.694;2023-11-18T11:33:32;101910.09;;;7.52;72.73
22241;BME280;11289;52.524;13.694;2023-11-18T11:36:07;101889.91;;;7.56;72.85
22241;BME280;11289;52.524;13.694;2023-11-18T11:38:37;101886.88;;;7.58;72.82
22241;BME280;11289;52.524;13.694;2023-11-18T11:41:03;101879.16;;;7.60;71.10
22241;BME280;11289;52.524;13.694;2023-11-18T11:43:30;101873.63;;;7.60;70.61
22241;BME280;11289;52.524;13.694;2023-11-18T11:46:03;101878.03;;;7.56;70.69
22241;BME280;11289;52.524;13.694;2023-11-18T11:48:36;101874.72;;;7.59;72.65
22241;BME280;11289;52.524;13.694;2023-11-18T11:51:05;101881.59;;;7.72;72.58
22241;BME280;11289;52.524;13.694;2023-11-18T11:53:47;101887.94;;;7.77;72.13
22241;BME280;11289;52.524;13.694;2023-11-18T11:56:17;101883.50;;;7.76;70.80
22241;BME280;11289;52.524;13.694;2023-11-18T11:58:46;101872.50;;;7.66;69.66
22241;BME280;11289;52.524;13.694;2023-11-18T12:01:27;101862.84;;;7.58;70.85
22241;BME280;11289;52.524;13.694;2023-11-18T12:03:58;101864.19;;;7.61;71.46
22241;BME280;11289;52.524;13.694;2023-11-18T12:06:32;101849.34;;;7.46;70.20
22241;BME280;11289;52.524;13.694;2023-11-18T12:08:59;101836.03;;;7.43;72.31
22241;BME280;11289;52.524;13.694;2023-11-18T12:11:25;101849.56;;;7.60;73.43
22241;BME280;11289;52.524;13.694;2023-11-18T12:14:01;101839.31;;;7.71;71.90
22241;BME280;11289;52.524;13.694;2023-11-18T12:19:29;101846.97;;;7.90;72.07
22241;BME280;11289;52.524;13.694;2023-11-18T12:22:10;101837.00;;;7.94;71.50
22241;BME280;11289;52.524;13.694;2023-11-18T12:24:46;101839.75;;;7.99;71.27
22241;BME280;11289;52.524;13.694;2023-11-18T12:35:24;101826.91;;;8.18;71.25
22241;BME280;11289;52.524;13.694;2023-11-18T12:43:03;101819.13;;;8.31;71.06
22241;BME280;11289;52.524;13.694;2023-11-18T12:48:20;101812.38;;;8.47;68.88
22241;BME280;11289;52.524;13.694;2023-11-18T12:50:55;101819.88;;;8.47;70.30
22241;BME280;11289;52.524;13.694;2023-11-18T12:53:22;101817.09;;;8.47;69.77
22241;BME280;11289;52.524;13.694;2023-11-18T12:55:49;101814.09;;;8.38;68.55
22241;BME280;11289;52.524;13.694;2023-11-18T12:58:16;101814.09;;;8.33;69.47
22241;BME280;11289;52.524;13.694;2023-11-18T13:00:43;101823.56;;;8.27;69.21
22241;BME280;11289;52.524;13.694;2023-11-18T13:03:10;101816.66;;;8.19;69.30
22241;BME280;11289;52.524;13.694;2023-11-18T13:05:36;101814.22;;;8.12;69.38
22241;BME280;11289;52.524;13.694;2023-11-18T13:08:03;101812.63;;;8.06;69.45
22241;BME280;11289;52.524;13.694;2023-11-18T13:10:29;101811.25;;;7.98;69.87
22241;BME280;11289;52.524;13.694;2023-11-18T13:12:54;101808.25;;;7.90;69.95
22241;BME280;11289;52.524;13.694;2023-11-18T13:15:20;101810.50;;;7.82;70.36
22241;BME280;11289;52.524;13.694;2023-11-18T13:18:02;101799.50;;;7.67;70.39
22241;BME280;11289;52.524;13.694;2023-11-18T13:20:32;101803.09;;;7.67;71.31